Lehigh Acres, FL (33973)

11:07 AM EDT on July 04, 2015 (GMT -0400)
Unger Ave | | Change Station
CLOSE
Current Station
Personal Weather Station
Location: Fortmyers, FL
Elevation: 49 ft
Nearby Weather Stations

Elev 49 ft 26.55 °N, 81.66 °W | Updated 11 minutes ago

Clear
Clear
86.4 °F
Feels Like 98 °F
N
4.0
Wind Variable Wind from South
Gusts 9.0 mph

Today
High -- | Low -- °F
--% Chance of Precip.
Yesterday
High -- | Low -- °F
Precip. -- in
6:38 AM 8:24 PM
Waning Gibbous, 92% visible
Pressure 30.12 in
Visibility 10.0 miles
Clouds Clear
Heat Index 98 °F
Dew Point 78 °F
Humidity 75%
Rainfall 1.45 in
Snow Depth Not available.
UV 10 out of 12
Pollen 2.10 out of 12
Air Quality Not available.
Flu Activity Not available.
METAR KRSW 041453Z 12007KT 10SM CLR 29/24 A3013 RMK AO2 SLP200 T02940239 53007

More Conditions Fewer Conditions

Pressure 30.12 in
Visibility 10.0 miles
Clouds Clear
Heat Index 98 °F
Dew Point 78 °F
Humidity 75%
Rainfall 1.45 in
Snow Depth Not available.
UV 10 out of 12
Pollen 2.10 out of 12
Air Quality Not available.
Flu Activity Not available.
METAR KRSW 041453Z 12007KT 10SM CLR 29/24 A3013 RMK AO2 SLP200 T02940239 53007

More Conditions Fewer Conditions

10-Day Weather Forecast

×

Almanac

Astronomy

Jul. 04, 2015 Rise Set
Actual Time
Civil Twilight
Nautical Twilight
Astronomical Twilight
Moon
Length of Visible Light
Length of Day
Tomorrow will be .
, % of the Moon is Illuminated

Today's Extremes

State Highs State Lows

Community

WunderPhotos

Upload Photos

1,834,985 photos uploaded!

WunderBlogs® & News

Nearby

Air Quality

  Air Quality AQ Index Pollutant
Not available.

Snow Depth

Station Depth Elevation

Earthquake Activity

City Distance Mag. Time & Date
Minimum magnitude displayed is 2.5.

Coastal Water Temperatures

Place Temperature

Stations

Nearby Weather Stations

Station Location Temp. Windchill Dew Point Humidity Wind Precip. Elev Updated Type